Dodge City, KS (67801)

12:50 PM CDT on July 25, 2016 (GMT -0500)
DCDolphins Weather | | Change Station

Elev 2628 ft 37.78 °N, 100.03 °W | Updated 2 minutes ago

Scattered Clouds
Scattered Clouds
82.6 °F
Feels Like 86 °F
N
2.2
Wind Variable Wind from ESE

Today
High -- | Low -- °F
--% Chance of Precip.
Yesterday
High -- | Low -- °F
Precip. -- in
Pressure 30.07 in
Visibility 10.0 miles
Clouds Scattered Clouds 2300 ft
Heat Index 86 °F
Dew Point 68 °F
Humidity 62%
Rainfall 0.30 in
Snow Depth Not available.
6:38 AM 8:54 PM
Waning Gibbous, 64% visible
METAR KDDC 251652Z AUTO 09011G15KT 10SM SCT023 26/20 A3017 RMK AO2 SLP183 T02560200
Pressure 30.07 in
Visibility 10.0 miles
Clouds Scattered Clouds 2300 ft
Heat Index 86 °F
Dew Point 68 °F
Humidity 62%
Rainfall 0.30 in
Snow Depth Not available.
6:38 AM 8:54 PM
Waning Gibbous, 64% visible
METAR KDDC 251652Z AUTO 09011G15KT 10SM SCT023 26/20 A3017 RMK AO2 SLP183 T02560200

10-Day Weather Forecast

Almanac

Astronomy

Jul. 25, 2016 Rise Set
Actual Time
Civil Twilight
Nautical Twilight
Astronomical Twilight
Moon
Length of Visible Light
Length of Day
Tomorrow will be .
, % of the Moon is Illuminated

Today's Extremes

State Highs State Lows

Community

WunderPhotos

Upload Photos

1,927,364 photos uploaded!

WunderBlog® & News

Nearby

Air Quality

  Air Quality AQ Index Pollutant
Not available.

Snow Depth

Station Depth Elevation

Earthquake Activity

City Distance Mag. Time & Date
Minimum magnitude displayed is 2.5.

Coastal Water Temperatures

Place Temperature

Stations

Nearby Weather Stations

Station Location Temp. Windchill Dew Point Humidity Wind Precip. Elev Updated Type
                   

Watches & Warnings

There are currently no watches in effect.